Time,TemperatureF,DewpointF,PressureIn,WindDirection,WindDirectionDegrees,WindSpeedMPH,WindSpeedGustMPH,Humidity,HourlyPrecipIn,Conditions,Clouds,dailyrainin,SolarRadiationWatts/m^2,SoftwareType,DateUTC
2013-05-01 00:10:00,60.4,52.4,30.21,SSE,166,3.0,3.0,75,0.00,,,0.00,0,Wunderground v.1.15,2013-05-01 04:10:00,
2013-05-01 00:20:00,60.4,52.4,30.21,South,171,3.0,3.0,75,0.00,,,0.00,0,Wunderground v.1.15,2013-05-01 04:20:00,
2013-05-01 00:30:00,60.5,52.5,30.22,SSE,161,4.0,4.0,75,0.00,,,0.00,0,Wunderground v.1.15,2013-05-01 04:30:00,
2013-05-01 00:40:00,60.5,52.5,30.21,SE,141,4.0,6.0,75,0.00,,,0.00,0,Wunderground v.1.15,2013-05-01 04:40:00,
2013-05-01 00:50:00,60.5,52.5,30.22,SSE,163,4.0,4.0,75,0.00,,,0.00,0,Wunderground v.1.15,2013-05-01 04:50:00,
2013-05-01 01:00:00,60.5,52.5,30.22,South,169,4.0,5.0,75,0.00,,,0.00,0,Wunderground v.1.15,2013-05-01 05:00:00,
2013-05-01 01:10:00,60.6,52.6,30.22,South,175,4.0,4.0,75,0.00,,,0.00,0,Wunderground v.1.15,2013-05-01 05:10:00,
2013-05-01 01:20:00,60.6,52.3,30.23,South,175,4.0,4.0,74,0.00,,,0.00,0,Wunderground v.1.15,2013-05-01 05:20:00,
2013-05-01 01:30:00,60.4,52.4,30.23,South,177,3.0,3.0,75,0.00,,,0.00,0,Wunderground v.1.15,2013-05-01 05:30:00,
2013-05-01 01:40:00,60.3,52.7,30.23,SSE,154,3.0,5.0,76,0.00,,,0.00,0,Wunderground v.1.15,2013-05-01 05:40:00,
2013-05-01 01:50:00,60.3,52.7,30.23,SSE,167,4.0,4.0,76,0.00,,,0.00,0,Wunderground v.1.15,2013-05-01 05:50:00,
2013-05-01 02:00:00,60.3,52.7,30.23,SSE,153,4.0,4.0,76,0.00,,,0.00,0,Wunderground v.1.15,2013-05-01 06:00:00,
2013-05-01 02:10:00,60.0,52.4,30.23,SE,145,4.0,6.0,76,0.00,,,0.00,0,Wunderground v.1.15,2013-05-01 06:10:00,
2013-05-01 02:20:00,60.0,52.4,30.23,SSE,156,4.0,4.0,76,0.00,,,0.00,0,Wunderground v.1.15,2013-05-01 06:20:00,
2013-05-01 02:30:00,59.9,52.3,30.23,SSE,165,3.0,5.0,76,0.00,,,0.00,0,Wunderground v.1.15,2013-05-01 06:30:00,
2013-05-01 02:40:00,59.9,52.3,30.23,SSE,155,4.0,4.0,76,0.00,,,0.00,0,Wunderground v.1.15,2013-05-01 06:40:00,
2013-05-01 02:50:00,60.0,52.4,30.23,SE,146,5.0,6.0,76,0.00,,,0.00,0,Wunderground v.1.15,2013-05-01 06:50:00,
2013-05-01 03:00:00,59.9,52.3,30.23,SSE,161,4.0,4.0,76,0.00,,,0.00,0,Wunderground v.1.15,2013-05-01 07:00:00,
2013-05-01 03:10:00,59.8,52.6,30.23,SSE,162,4.0,4.0,77,0.00,,,0.00,0,Wunderground v.1.15,2013-05-01 07:10:00,
2013-05-01 03:20:00,59.7,52.5,30.23,SSE,161,4.0,6.0,77,0.00,,,0.00,0,Wunderground v.1.15,2013-05-01 07:20:00,
2013-05-01 03:30:00,59.6,52.4,30.23,SSE,158,4.0,4.0,77,0.00,,,0.00,0,Wunderground v.1.15,2013-05-01 07:30:00,
2013-05-01 03:40:00,59.4,52.2,30.23,SSE,152,4.0,5.0,77,0.00,,,0.00,0,Wunderground v.1.15,2013-05-01 07:40:00,
2013-05-01 03:50:00,59.2,52.3,30.23,SE,138,4.0,6.0,78,0.00,,,0.00,0,Wunderground v.1.15,2013-05-01 07:50:00,
2013-05-01 04:00:00,58.9,52.4,30.23,South,169,5.0,5.0,79,0.00,,,0.00,0,Wunderground v.1.15,2013-05-01 08:00:00,
2013-05-01 04:10:00,58.9,52.4,30.23,SSE,167,4.0,5.0,79,0.00,,,0.00,0,Wunderground v.1.15,2013-05-01 08:10:00,
2013-05-01 04:20:00,58.8,52.3,30.24,SE,146,4.0,4.0,79,0.00,,,0.00,0,Wunderground v.1.15,2013-05-01 08:20:00,
2013-05-01 04:30:00,58.8,52.3,30.24,SE,134,5.0,7.0,79,0.00,,,0.00,0,Wunderground v.1.15,2013-05-01 08:30:00,
2013-05-01 04:40:00,58.7,52.2,30.24,SSE,148,5.0,6.0,79,0.00,,,0.00,0,Wunderground v.1.15,2013-05-01 08:40:00,
2013-05-01 04:50:00,58.4,52.3,30.25,SE,136,5.0,5.0,80,0.00,,,0.00,0,Wunderground v.1.15,2013-05-01 08:50:00,
2013-05-01 05:00:00,58.0,51.9,30.25,South,169,5.0,5.0,80,0.00,,,0.00,0,Wunderground v.1.15,2013-05-01 09:00:00,
2013-05-01 05:10:00,57.8,51.7,30.25,SSE,157,5.0,5.0,80,0.00,,,0.00,0,Wunderground v.1.15,2013-05-01 09:10:00,
2013-05-01 05:20:00,57.8,51.7,30.26,SSE,159,4.0,4.0,80,0.00,,,0.00,0,Wunderground v.1.15,2013-05-01 09:20:00,
2013-05-01 05:30:00,57.8,51.3,30.26,SSE,163,3.0,5.0,79,0.00,,,0.00,0,Wunderground v.1.15,2013-05-01 09:30:00,
2013-05-01 05:40:00,57.9,51.1,30.27,SE,146,4.0,4.0,78,0.00,,,0.00,0,Wunderground v.1.15,2013-05-01 09:40:00,
2013-05-01 05:50:00,57.8,50.3,30.27,SSE,150,3.0,3.0,76,0.00,,,0.00,0,Wunderground v.1.15,2013-05-01 09:50:00,
2013-05-01 06:00:00,57.7,50.2,30.28,SSE,163,3.0,5.0,76,0.00,,,0.00,0,Wunderground v.1.15,2013-05-01 10:00:00,
2013-05-01 06:10:00,57.9,49.7,30.28,SSE,167,3.0,4.0,74,0.00,,,0.00,5,Wunderground v.1.15,2013-05-01 10:10:00,
2013-05-01 06:20:00,57.9,49.7,30.29,SSE,167,3.0,4.0,74,0.00,,,0.00,7,Wunderground v.1.15,2013-05-01 10:20:00,
2013-05-01 06:30:00,57.9,49.7,30.29,SSE,152,4.0,4.0,74,0.00,,,0.00,9,Wunderground v.1.15,2013-05-01 10:30:00,
2013-05-01 06:40:00,57.8,49.2,30.30,SSE,161,4.0,4.0,73,0.00,,,0.00,12,Wunderground v.1.15,2013-05-01 10:40:00,
2013-05-01 06:50:00,57.8,49.2,30.30,SE,138,4.0,4.0,73,0.00,,,0.00,19,Wunderground v.1.15,2013-05-01 10:50:00,
2013-05-01 07:00:00,57.8,48.8,30.31,SSE,150,3.0,3.0,72,0.00,,,0.00,26,Wunderground v.1.15,2013-05-01 11:00:00,
2013-05-01 08:40:00,60.0,49.0,30.33,SE,146,7.0,7.0,67,0.00,,,0.00,207,Wunderground v.1.15,2013-05-01 12:40:00,
2013-05-01 08:50:00,60.2,48.4,30.33,SSE,167,7.0,9.0,65,0.00,,,0.00,197,Wunderground v.1.15,2013-05-01 12:50:00,
2013-05-01 09:00:00,60.3,48.9,30.31,South,173,10.0,10.0,66,0.00,,,0.00,181,Wunderground v.1.15,2013-05-01 13:00:00,
2013-05-01 09:10:00,60.4,49.0,30.31,SSE,161,8.0,8.0,66,0.00,,,0.00,176,Wunderground v.1.15,2013-05-01 13:10:00,
2013-05-01 09:20:00,60.3,49.3,30.31,SSE,156,8.0,10.0,67,0.00,,,0.00,178,Wunderground v.1.15,2013-05-01 13:20:00,
2013-05-01 09:30:00,60.6,49.6,30.32,SE,139,8.0,8.0,67,0.00,,,0.00,204,Wunderground v.1.15,2013-05-01 13:30:00,
2013-05-01 09:40:00,61.4,49.5,30.32,SSE,150,6.0,6.0,65,0.00,,,0.00,218,Wunderground v.1.15,2013-05-01 13:40:00,
2013-05-01 09:50:00,61.8,48.6,30.32,SE,141,7.0,10.0,62,0.00,,,0.00,232,Wunderground v.1.15,2013-05-01 13:50:00,
2013-05-01 10:00:00,62.4,50.5,30.32,SE,139,6.0,6.0,65,0.00,,,0.00,251,Wunderground v.1.15,2013-05-01 14:00:00,
2013-05-01 10:10:00,62.6,48.5,30.32,SE,140,7.0,7.0,60,0.00,,,0.00,237,Wunderground v.1.15,2013-05-01 14:10:00,
2013-05-01 10:20:00,62.8,49.1,30.32,SSE,151,6.0,6.0,61,0.00,,,0.00,223,Wunderground v.1.15,2013-05-01 14:20:00,
2013-05-01 10:30:00,63.3,49.2,30.32,SSE,152,5.0,6.0,60,0.00,,,0.00,272,Wunderground v.1.15,2013-05-01 14:30:00,
2013-05-01 10:40:00,64.3,49.2,30.32,SE,146,6.0,6.0,58,0.00,,,0.00,369,Wunderground v.1.15,2013-05-01 14:40:00,
2013-05-01 10:50:00,66.1,48.5,30.32,SE,142,8.0,10.0,53,0.00,,,0.00,425,Wunderground v.1.15,2013-05-01 14:50:00,
2013-05-01 11:00:00,67.7,47.8,30.32,ESE,123,10.0,13.0,49,0.00,,,0.00,1081,Wunderground v.1.15,2013-05-01 15:00:00,
2013-05-01 11:10:00,68.3,46.7,30.32,SSE,154,9.0,9.0,46,0.00,,,0.00,1041,Wunderground v.1.15,2013-05-01 15:10:00,
2013-05-01 11:20:00,69.3,46.4,30.32,SSW,202,9.0,11.0,44,0.00,,,0.00,844,Wunderground v.1.15,2013-05-01 15:20:00,
2013-05-01 11:30:00,70.0,44.6,30.32,SE,140,11.0,11.0,40,0.00,,,0.00,803,Wunderground v.1.15,2013-05-01 15:30:00,
2013-05-01 11:40:00,70.0,43.2,30.32,SSE,148,11.0,11.0,38,0.00,,,0.00,780,Wunderground v.1.15,2013-05-01 15:40:00,
2013-05-01 11:50:00,70.4,42.2,30.32,SSE,154,11.0,11.0,36,0.00,,,0.00,1018,Wunderground v.1.15,2013-05-01 15:50:00,
2013-05-01 12:00:00,71.1,42.0,30.32,SSE,158,12.0,12.0,35,0.00,,,0.00,979,Wunderground v.1.15,2013-05-01 16:00:00,
2013-05-01 12:10:00,71.9,41.2,30.32,SE,131,11.0,11.0,33,0.00,,,0.00,963,Wunderground v.1.15,2013-05-01 16:10:00,
2013-05-01 12:20:00,72.0,40.5,30.31,SSE,167,12.0,12.0,32,0.00,,,0.00,963,Wunderground v.1.15,2013-05-01 16:20:00,
2013-05-01 12:30:00,72.1,39.8,30.31,SSE,158,12.0,12.0,31,0.00,,,0.00,970,Wunderground v.1.15,2013-05-01 16:30:00,
2013-05-01 12:40:00,72.5,41.0,30.31,SSE,155,10.0,16.0,32,0.00,,,0.00,976,Wunderground v.1.15,2013-05-01 16:40:00,
2013-05-01 12:50:00,72.9,43.6,30.30,South,173,10.0,10.0,35,0.00,,,0.00,983,Wunderground v.1.15,2013-05-01 16:50:00,
2013-05-01 13:00:00,72.9,42.9,30.31,South,182,11.0,11.0,34,0.00,,,0.00,981,Wunderground v.1.15,2013-05-01 17:00:00,
2013-05-01 13:10:00,73.4,42.5,30.30,SSW,206,10.0,10.0,33,0.00,,,0.00,981,Wunderground v.1.15,2013-05-01 17:10:00,
2013-05-01 13:20:00,73.7,43.6,30.30,SSE,162,9.0,9.0,34,0.00,,,0.00,983,Wunderground v.1.15,2013-05-01 17:20:00,
2013-05-01 13:30:00,73.3,41.6,30.30,South,173,11.0,11.0,32,0.00,,,0.00,979,Wunderground v.1.15,2013-05-01 17:30:00,
2013-05-01 13:40:00,73.9,42.2,30.30,South,185,9.0,9.0,32,0.00,,,0.00,974,Wunderground v.1.15,2013-05-01 17:40:00,
2013-05-01 13:50:00,74.6,42.0,30.29,SE,125,9.0,9.0,31,0.00,,,0.00,969,Wunderground v.1.15,2013-05-01 17:50:00,
2013-05-01 14:00:00,75.1,41.5,30.29,SE,138,11.0,11.0,30,0.00,,,0.00,963,Wunderground v.1.15,2013-05-01 18:00:00,
2013-05-01 14:10:00,75.0,39.7,30.29,SSE,153,10.0,10.0,28,0.00,,,0.00,953,Wunderground v.1.15,2013-05-01 18:10:00,
2013-05-01 14:20:00,75.1,40.7,30.29,SE,136,11.0,11.0,29,0.00,,,0.00,940,Wunderground v.1.15,2013-05-01 18:20:00,
2013-05-01 14:30:00,75.5,40.1,30.29,SE,131,10.0,13.0,28,0.00,,,0.00,919,Wunderground v.1.15,2013-05-01 18:30:00,
2013-05-01 14:40:00,75.5,40.1,30.29,SE,130,10.0,12.0,28,0.00,,,0.00,914,Wunderground v.1.15,2013-05-01 18:40:00,
2013-05-01 14:50:00,75.7,39.3,30.29,SSE,147,10.0,14.0,27,0.00,,,0.00,896,Wunderground v.1.15,2013-05-01 18:50:00,
2013-05-01 15:00:00,76.5,40.0,30.28,SE,138,8.0,13.0,27,0.00,,,0.00,888,Wunderground v.1.15,2013-05-01 19:00:00,
2013-05-01 15:10:00,76.0,38.6,30.28,South,189,9.0,9.0,26,0.00,,,0.00,842,Wunderground v.1.15,2013-05-01 19:10:00,
2013-05-01 15:20:00,76.0,39.6,30.28,SSE,150,10.0,11.0,27,0.00,,,0.00,831,Wunderground v.1.15,2013-05-01 19:20:00,
2013-05-01 15:30:00,76.6,40.1,30.28,SSE,162,9.0,9.0,27,0.00,,,0.00,819,Wunderground v.1.15,2013-05-01 19:30:00,
2013-05-01 15:40:00,76.2,38.8,30.28,ESE,116,9.0,16.0,26,0.00,,,0.00,793,Wunderground v.1.15,2013-05-01 19:40:00,
2013-05-01 15:50:00,76.3,40.8,30.28,SE,128,10.0,10.0,28,0.00,,,0.00,766,Wunderground v.1.15,2013-05-01 19:50:00,
2013-05-01 16:00:00,76.5,40.0,30.28,ESE,121,8.0,12.0,27,0.00,,,0.00,742,Wunderground v.1.15,2013-05-01 20:00:00,
2013-05-01 16:10:00,76.1,40.6,30.28,SE,130,9.0,11.0,28,0.00,,,0.00,714,Wunderground v.1.15,2013-05-01 20:10:00,
2013-05-01 16:20:00,76.2,42.5,30.28,SE,125,9.0,9.0,30,0.00,,,0.00,684,Wunderground v.1.15,2013-05-01 20:20:00,
2013-05-01 16:30:00,75.8,40.4,30.28,SE,140,11.0,11.0,28,0.00,,,0.00,654,Wunderground v.1.15,2013-05-01 20:30:00,
2013-05-01 16:40:00,76.5,39.0,30.28,South,176,8.0,14.0,26,0.00,,,0.00,626,Wunderground v.1.15,2013-05-01 20:40:00,
2013-05-01 16:50:00,76.0,40.5,30.27,SE,128,10.0,10.0,28,0.00,,,0.00,596,Wunderground v.1.15,2013-05-01 20:50:00,
2013-05-01 17:00:00,75.8,39.4,30.27,SSE,151,10.0,10.0,27,0.00,,,0.00,563,Wunderground v.1.15,2013-05-01 21:00:00,
2013-05-01 17:10:00,75.7,38.4,30.27,SSE,157,10.0,10.0,26,0.00,,,0.00,533,Wunderground v.1.15,2013-05-01 21:10:00,
2013-05-01 17:20:00,76.1,42.4,30.27,South,180,9.0,9.0,30,0.00,,,0.00,503,Wunderground v.1.15,2013-05-01 21:20:00,
2013-05-01 17:30:00,76.1,39.7,30.27,SSE,162,7.0,10.0,27,0.00,,,0.00,469,Wunderground v.1.15,2013-05-01 21:30:00,
2013-05-01 17:40:00,76.0,40.5,30.27,ESE,123,8.0,8.0,28,0.00,,,0.00,436,Wunderground v.1.15,2013-05-01 21:40:00,
2013-05-01 17:50:00,76.1,39.7,30.27,ESE,108,7.0,10.0,27,0.00,,,0.00,408,Wunderground v.1.15,2013-05-01 21:50:00,
2013-05-01 18:00:00,75.8,40.4,30.27,SE,139,8.0,9.0,28,0.00,,,0.00,367,Wunderground v.1.15,2013-05-01 22:00:00,
2013-05-01 18:10:00,75.5,41.0,30.28,ESE,121,9.0,9.0,29,0.00,,,0.00,332,Wunderground v.1.15,2013-05-01 22:10:00,
2013-05-01 18:20:00,75.4,38.1,30.27,SE,128,7.0,7.0,26,0.00,,,0.00,297,Wunderground v.1.15,2013-05-01 22:20:00,
2013-05-01 18:30:00,75.3,37.0,30.27,ESE,107,6.0,7.0,25,0.00,,,0.00,264,Wunderground v.1.15,2013-05-01 22:30:00,
2013-05-01 18:40:00,74.8,39.5,30.28,SE,138,8.0,8.0,28,0.00,,,0.00,223,Wunderground v.1.15,2013-05-01 22:40:00,
2013-05-01 18:50:00,74.4,37.3,30.28,SE,126,8.0,8.0,26,0.00,,,0.00,181,Wunderground v.1.15,2013-05-01 22:50:00,
2013-05-01 19:00:00,74.2,38.1,30.28,SE,128,7.0,10.0,27,0.00,,,0.00,137,Wunderground v.1.15,2013-05-01 23:00:00,
2013-05-01 19:10:00,73.7,38.6,30.27,ESE,121,8.0,8.0,28,0.00,,,0.00,67,Wunderground v.1.15,2013-05-01 23:10:00,
2013-05-01 19:20:00,73.2,37.2,30.28,ESE,112,7.0,9.0,27,0.00,,,0.00,60,Wunderground v.1.15,2013-05-01 23:20:00,
2013-05-01 19:30:00,72.6,38.5,30.28,SE,128,6.0,6.0,29,0.00,,,0.00,46,Wunderground v.1.15,2013-05-01 23:30:00,
2013-05-01 19:40:00,72.0,38.9,30.28,SE,128,4.0,4.0,30,0.00,,,0.00,26,Wunderground v.1.15,2013-05-01 23:40:00,
2013-05-01 19:50:00,71.1,37.2,30.28,ESE,113,4.0,4.0,29,0.00,,,0.00,18,Wunderground v.1.15,2013-05-01 23:50:00,
2013-05-01 20:00:00,70.4,38.3,30.29,ESE,117,4.0,4.0,31,0.00,,,0.00,11,Wunderground v.1.15,2013-05-02 00:00:00,
2013-05-01 20:10:00,69.9,37.9,30.29,ESE,123,3.0,3.0,31,0.00,,,0.00,5,Wunderground v.1.15,2013-05-02 00:10:00,
2013-05-01 20:20:00,69.6,36.8,30.29,ESE,121,2.0,2.0,30,0.00,,,0.00,0,Wunderground v.1.15,2013-05-02 00:20:00,
2013-05-01 20:30:00,68.9,37.0,30.29,ESE,113,2.0,3.0,31,0.00,,,0.00,0,Wunderground v.1.15,2013-05-02 00:30:00,
2013-05-01 20:40:00,67.9,37.7,30.30,ESE,113,2.0,2.0,33,0.00,,,0.00,0,Wunderground v.1.15,2013-05-02 00:40:00,
2013-05-01 20:50:00,67.2,38.6,30.30,ESE,107,2.0,2.0,35,0.00,,,0.00,0,Wunderground v.1.15,2013-05-02 00:50:00,
2013-05-01 21:00:00,64.7,41.7,30.30,ESE,107,1.0,2.0,43,0.00,,,0.00,0,Wunderground v.1.15,2013-05-02 01:00:00,
2013-05-01 21:10:00,65.1,38.2,30.31,ESE,115,2.0,2.0,37,0.00,,,0.00,0,Wunderground v.1.15,2013-05-02 01:10:00,
2013-05-01 21:20:00,64.2,40.0,30.31,ESE,115,0.0,0.0,41,0.00,,,0.00,0,Wunderground v.1.15,2013-05-02 01:20:00,
2013-05-01 21:30:00,64.4,41.4,30.31,ESE,115,0.0,0.0,43,0.00,,,0.00,0,Wunderground v.1.15,2013-05-02 01:30:00,
2013-05-01 21:40:00,63.0,40.7,30.31,ESE,115,0.0,0.0,44,0.00,,,0.00,0,Wunderground v.1.15,2013-05-02 01:40:00,
2013-05-01 21:50:00,63.4,43.4,30.31,ESE,115,0.0,0.0,48,0.00,,,0.00,0,Wunderground v.1.15,2013-05-02 01:50:00,
2013-05-01 22:00:00,62.7,39.9,30.31,ESE,121,0.0,2.0,43,0.00,,,0.00,0,Wunderground v.1.15,2013-05-02 02:00:00,
2013-05-01 22:10:00,62.8,41.1,30.32,SE,128,1.0,1.0,45,0.00,,,0.00,0,Wunderground v.1.15,2013-05-02 02:10:00,
2013-05-01 22:20:00,62.3,38.9,30.32,SE,128,0.0,0.0,42,0.00,,,0.00,0,Wunderground v.1.15,2013-05-02 02:20:00,
2013-05-01 22:30:00,62.6,38.6,30.32,SE,128,0.0,0.0,41,0.00,,,0.00,0,Wunderground v.1.15,2013-05-02 02:30:00,
2013-05-01 22:40:00,60.8,42.5,30.32,SE,128,0.0,0.0,51,0.00,,,0.00,0,Wunderground v.1.15,2013-05-02 02:40:00,
2013-05-01 22:50:00,61.0,41.2,30.31,SE,142,1.0,1.0,48,0.00,,,0.00,0,Wunderground v.1.15,2013-05-02 02:50:00,
2013-05-01 23:00:00,59.8,40.1,30.31,SE,142,1.0,1.0,48,0.00,,,0.00,0,Wunderground v.1.15,2013-05-02 03:00:00,
2013-05-01 23:10:00,59.7,40.0,30.31,SE,142,0.0,0.0,48,0.00,,,0.00,0,Wunderground v.1.15,2013-05-02 03:10:00,
2013-05-01 23:20:00,58.0,44.6,30.31,SE,142,1.0,1.0,61,0.00,,,0.00,0,Wunderground v.1.15,2013-05-02 03:20:00,
2013-05-01 23:30:00,55.4,44.2,30.30,SE,142,2.0,2.0,66,0.00,,,0.00,0,Wunderground v.1.15,2013-05-02 03:30:00,
2013-05-01 23:40:00,55.8,43.8,30.30,SE,142,1.0,1.0,64,0.00,,,0.00,0,Wunderground v.1.15,2013-05-02 03:40:00,
2013-05-01 23:50:00,55.2,44.0,30.30,SE,142,2.0,3.0,66,0.00,,,0.00,0,Wunderground v.1.15,2013-05-02 03:50:00,